This is the latest recevied weather packets stored in our database for station/object N5SOR-1. If no packets are shown the sender has not sent any weather packets the latest 1 day(s).
| Time | Temp. | Humidity | Pressure | Rain* | Wind** | Luminosity | Snow |
|---|---|---|---|---|---|---|---|
| 1778097754 | 26.11° C | 26% | 1011.5 hPa | 0 mm | - | 828 W/m² | - |
| 1778096433 | 25° C | 29% | 1011.6 hPa | 0 mm | - | 991 W/m² | - |
| 1778094451 | 25° C | 29% | 1011.9 hPa | 0 mm | - | 638 W/m² | - |
| 1778093130 | 25° C | 31% | 1012.3 hPa | 0 mm | - | 557 W/m² | - |
| 1778091148 | 23.89° C | 31% | 1012.3 hPa | 0 mm | - | 578 W/m² | - |
| 1778087845 | 23.33° C | 25% | 1012.6 hPa | 0 mm | - | 417 W/m² | - |
| 1778084542 | 22.22° C | 25% | 1012.4 hPa | 0 mm | - | 338 W/m² | - |
| 1778083221 | 21.67° C | 29% | 1012.3 hPa | 0 mm | - | 297 W/m² | - |
| 1778082560 | 21.11° C | 29% | 1012.2 hPa | 0 mm | - | 285 W/m² | - |
| 1778079257 | 20° C | 32% | 1011.7 hPa | 0 mm | - | 207 W/m² | - |
| 1778078596 | 20° C | 33% | 1011.7 hPa | 0 mm | - | 185 W/m² | - |
| 1778075954 | 19.44° C | 34% | 1011.3 hPa | 0 mm | - | 116 W/m² | - |
| 1778073972 | 19.44° C | 37% | 1010.9 hPa | 0 mm | - | 54 W/m² | - |
| 1778070669 | 19.44° C | 36% | 1009.9 hPa | 0 mm | - | 11 W/m² | - |
| 1778067366 | 20° C | 36% | 1009.4 hPa | 0 mm | - | 0 W/m² | - |
| 1778065384 | 20° C | 36% | 1009.3 hPa | 0 mm | - | 0 W/m² | - |
| 1778064725 | 20° C | 36% | 1009.2 hPa | 0 mm | - | 0 W/m² | - |
| 1778062081 | 20° C | 34% | 1009.1 hPa | 0 mm | - | 0 W/m² | - |
| 1778061420 | 20° C | 34% | 1009 hPa | 0 mm | - | 0 W/m² | - |
| 1778060099 | 20.56° C | 32% | 1008.8 hPa | 0 mm | - | 0 W/m² | - |
| 1778058779 | 20.56° C | 31% | 1008.7 hPa | 0 mm | - | 0 W/m² | - |
| 1778056796 | 21.11° C | 30% | 1008.8 hPa | 0 mm | - | 0 W/m² | - |
| 1778056135 | 21.11° C | 31% | 1008.6 hPa | 0 mm | - | 0 W/m² | - |
| 1778054814 | 20.56° C | 32% | 1008.8 hPa | 0 mm | - | 0 W/m² | - |
| 1778053493 | 23.33° C | 25% | 1008.4 hPa | 0 mm | - | 0 W/m² | - |
* Rain latest hour (hover to see other rain measurements)
** Current wind speed in m/s (hover to see current wind gust speed)